Time;durP1;ratioP1;P1;durP2;ratioP2;P2;SDS_P1;SDS_P2;PMS_P1;PMS_P2;Temp;Humidity;BMP_temperature;BMP_pressure;BME280_temperature;BME280_humidity;BME280_pressure;Samples;Min_cycle;Max_cycle;Signal;HPM_P1;HPM_P2
2022/03/14 00:01:49;;;;;;;2.55;1.02;;;14.70;55.80;;;;;;5051054;28;20478;-62
2022/03/14 00:04:17;;;;;;;1.05;0.80;;;14.70;56.00;;;;;;5050946;28;20021;-62
2022/03/14 00:06:44;;;;;;;1.10;1.00;;;14.70;56.20;;;;;;5049998;28;20041;-66
2022/03/14 00:09:10;;;;;;;1.02;0.90;;;14.70;56.40;;;;;;5060540;28;20019;-66
2022/03/14 00:11:36;;;;;;;1.40;1.00;;;14.70;56.40;;;;;;5053000;28;20037;-62
2022/03/14 00:14:06;;;;;;;1.63;0.90;;;14.70;56.30;;;;;;5051332;28;20021;-66
2022/03/14 00:16:32;;;;;;;1.00;0.90;;;14.60;56.30;;;;;;5050458;28;20021;-61
2022/03/14 00:18:58;;;;;;;0.80;0.70;;;14.60;56.20;;;;;;5050907;28;20037;-62
2022/03/14 00:21:26;;;;;;;1.13;1.00;;;14.60;56.30;;;;;;5048512;28;20080;-61
2022/03/14 00:23:53;;;;;;;0.82;0.80;;;14.50;56.30;;;;;;5049008;28;20131;-62
2022/03/14 00:26:19;;;;;;;0.82;0.80;;;14.40;56.30;;;;;;5049960;28;20025;-62
2022/03/14 00:28:45;;;;;;;1.00;0.90;;;14.40;56.50;;;;;;5049207;28;20074;-62
2022/03/14 00:31:11;;;;;;;1.05;0.77;;;14.40;56.60;;;;;;5051001;28;20107;-66
2022/03/14 00:33:39;;;;;;;1.35;0.98;;;14.30;56.80;;;;;;5050324;28;20033;-67
2022/03/14 00:36:06;;;;;;;1.10;0.63;;;14.40;56.80;;;;;;5048084;28;20056;-67
2022/03/14 00:38:32;;;;;;;0.63;0.60;;;14.40;56.90;;;;;;5050013;28;20037;-66
2022/03/14 00:40:59;;;;;;;0.90;0.90;;;14.30;57.00;;;;;;5050080;28;20060;-66
2022/03/14 00:43:25;;;;;;;1.10;0.90;;;14.30;57.10;;;;;;5049789;28;20472;-66
2022/03/14 00:45:50;;;;;;;0.80;0.80;;;14.30;57.30;;;;;;5049434;28;20083;-66
2022/03/14 00:48:16;;;;;;;3.28;1.17;;;14.30;57.20;;;;;;5048740;28;20083;-67
2022/03/14 00:50:42;;;;;;;0.77;0.60;;;14.30;57.30;;;;;;5050070;28;20029;-67
2022/03/14 00:53:08;;;;;;;2.38;1.10;;;14.30;57.40;;;;;;5049989;28;20039;-66
2022/03/14 00:55:34;;;;;;;1.00;0.50;;;14.30;57.20;;;;;;5049845;28;20482;-66
2022/03/14 00:57:59;;;;;;;2.70;0.70;;;14.30;57.10;;;;;;5048425;28;20124;-66
2022/03/14 01:00:26;;;;;;;1.10;0.70;;;14.30;57.20;;;;;;5050183;28;20447;-67
2022/03/14 01:02:52;;;;;;;1.77;0.70;;;14.20;57.50;;;;;;5050073;28;20041;-66
2022/03/14 01:05:19;;;;;;;0.73;0.70;;;14.20;57.80;;;;;;5049576;28;20044;-67
2022/03/14 01:07:45;;;;;;;0.75;0.63;;;14.20;57.80;;;;;;5045502;28;20025;-67
2022/03/14 01:10:13;;;;;;;0.70;0.60;;;14.10;57.70;;;;;;5047659;28;20075;-67
2022/03/14 01:12:39;;;;;;;1.85;0.82;;;14.10;57.80;;;;;;5048375;28;20020;-67
2022/03/14 01:15:05;;;;;;;1.30;0.90;;;14.10;57.90;;;;;;5048936;28;20055;-66
2022/03/14 01:17:31;;;;;;;0.93;0.70;;;14.10;58.40;;;;;;5049764;28;20031;-61
2022/03/14 01:19:57;;;;;;;1.27;0.80;;;14.10;58.40;;;;;;5048170;28;20395;-66
2022/03/14 01:22:23;;;;;;;1.55;0.65;;;14.00;58.60;;;;;;5050240;28;20029;-66
2022/03/14 01:24:48;;;;;;;1.30;0.80;;;14.00;58.80;;;;;;5049137;28;20048;-61
2022/03/14 01:27:14;;;;;;;1.00;0.90;;;14.00;59.20;;;;;;5048391;28;20044;-62
2022/03/14 01:29:40;;;;;;;1.17;0.80;;;14.00;59.20;;;;;;5049312;28;20599;-61
2022/03/14 01:32:07;;;;;;;1.23;1.02;;;13.90;59.20;;;;;;5046502;28;20399;-62
2022/03/14 01:34:34;;;;;;;1.17;0.90;;;14.00;59.20;;;;;;5032962;28;20028;-61
2022/03/14 01:37:01;;;;;;;1.08;0.80;;;14.00;59.20;;;;;;5048711;28;20392;-62
2022/03/14 01:39:27;;;;;;;1.15;1.00;;;13.90;59.20;;;;;;5049449;28;20017;-66
2022/03/14 01:41:53;;;;;;;1.05;0.80;;;14.00;59.40;;;;;;5047561;28;20487;-62
2022/03/14 01:44:19;;;;;;;0.90;0.73;;;13.90;59.20;;;;;;5049353;28;20033;-62
2022/03/14 01:46:45;;;;;;;1.90;0.80;;;13.90;59.30;;;;;;5048121;28;20538;-62
2022/03/14 01:49:11;;;;;;;1.27;0.90;;;13.90;59.30;;;;;;5049175;28;20029;-62
2022/03/14 01:51:39;;;;;;;1.17;0.85;;;13.90;59.40;;;;;;5048881;28;20040;-62
2022/03/14 01:54:05;;;;;;;1.55;0.85;;;13.90;59.60;;;;;;5049382;28;20082;-62
2022/03/14 01:56:32;;;;;;;1.38;0.80;;;13.90;59.80;;;;;;5048121;28;20275;-63
2022/03/14 01:58:58;;;;;;;0.77;0.70;;;13.90;59.70;;;;;;5048965;28;20032;-62
2022/03/14 02:01:23;;;;;;;1.50;0.90;;;13.90;59.60;;;;;;5047986;28;20120;-63
2022/03/14 02:03:50;;;;;;;0.82;0.63;;;13.90;59.70;;;;;;5049109;28;20116;-62
2022/03/14 02:06:17;;;;;;;2.15;0.93;;;13.90;59.80;;;;;;5048594;28;20166;-61
2022/03/14 02:08:43;;;;;;;1.20;0.80;;;13.90;60.00;;;;;;5048671;28;20040;-66
2022/03/14 02:11:09;;;;;;;1.17;0.90;;;13.80;60.10;;;;;;5063523;28;20029;-65
2022/03/14 02:13:35;;;;;;;1.55;1.02;;;13.90;60.20;;;;;;5060343;28;20043;-66
2022/03/14 02:16:00;;;;;;;1.77;1.08;;;13.80;60.20;;;;;;5039050;28;20021;-66
2022/03/14 02:18:26;;;;;;;2.80;1.25;;;13.80;60.20;;;;;;5048533;28;20510;-65
2022/03/14 02:20:52;;;;;;;2.25;0.90;;;13.80;60.30;;;;;;5048721;28;20040;-66
2022/03/14 02:23:18;;;;;;;1.40;1.00;;;13.80;60.70;;;;;;5048415;28;20112;-61
2022/03/14 02:25:51;;;;;;;1.27;1.13;;;13.70;60.70;;;;;;5048650;28;20029;-66
2022/03/14 02:28:20;;;;;;;1.98;1.30;;;13.70;60.70;;;;;;5047742;28;20040;-66
2022/03/14 02:30:46;;;;;;;1.80;1.30;;;13.70;60.90;;;;;;5038499;28;20037;-66
2022/03/14 02:33:12;;;;;;;1.75;1.13;;;13.60;61.10;;;;;;5047538;28;20025;-61
2022/03/14 02:35:41;;;;;;;2.25;1.33;;;13.60;61.10;;;;;;5048462;28;20665;-66
2022/03/14 02:38:09;;;;;;;1.45;0.98;;;13.60;61.30;;;;;;5047715;28;20408;-62
2022/03/14 02:40:38;;;;;;;2.05;1.13;;;13.60;61.30;;;;;;5048557;28;20036;-62
2022/03/14 02:43:04;;;;;;;2.70;1.50;;;13.60;61.50;;;;;;5047522;28;20037;-62
2022/03/14 02:45:30;;;;;;;2.10;1.20;;;13.60;61.60;;;;;;5052460;28;20400;-62
2022/03/14 02:47:56;;;;;;;1.52;1.23;;;13.50;61.70;;;;;;5051958;28;20025;-61
2022/03/14 02:50:22;;;;;;;1.77;1.20;;;13.50;61.70;;;;;;5052809;28;20029;-62
2022/03/14 02:52:47;;;;;;;2.05;1.17;;;13.50;61.60;;;;;;5052264;28;20249;-67
2022/03/14 02:55:17;;;;;;;2.38;1.27;;;13.50;61.80;;;;;;5050221;28;20098;-62
2022/03/14 02:57:43;;;;;;;1.67;1.38;;;13.50;62.20;;;;;;5050754;28;20056;-62
2022/03/14 03:00:10;;;;;;;2.03;1.27;;;13.40;62.00;;;;;;5051719;28;20056;-65
2022/03/14 03:02:37;;;;;;;0.82;0.80;;;13.40;62.50;;;;;;5050640;28;20087;-66
2022/03/14 03:05:05;;;;;;;0.90;0.82;;;13.40;62.40;;;;;;5050027;28;20470;-66
2022/03/14 03:07:31;;;;;;;1.25;0.80;;;13.40;62.50;;;;;;5051836;28;20025;-66
2022/03/14 03:09:57;;;;;;;0.80;0.73;;;13.40;62.50;;;;;;5052298;28;20024;-62
2022/03/14 03:12:25;;;;;;;0.55;0.55;;;13.40;62.60;;;;;;5051742;28;20025;-67
2022/03/14 03:14:51;;;;;;;1.35;0.80;;;13.40;62.90;;;;;;5051180;28;20059;-67
2022/03/14 03:17:17;;;;;;;0.93;0.80;;;13.40;63.50;;;;;;5050511;28;20048;-68
2022/03/14 03:19:42;;;;;;;1.70;1.10;;;13.40;64.00;;;;;;5051896;28;20040;-62
2022/03/14 03:22:08;;;;;;;0.90;0.80;;;13.40;64.00;;;;;;5051274;28;20033;-62
2022/03/14 03:24:34;;;;;;;1.45;1.10;;;13.40;64.70;;;;;;5051155;28;20112;-62
2022/03/14 03:26:59;;;;;;;1.60;1.20;;;13.30;64.80;;;;;;5051600;28;20021;-61
2022/03/14 03:29:25;;;;;;;3.22;1.25;;;13.30;65.20;;;;;;5051985;28;20060;-62
2022/03/14 03:31:51;;;;;;;2.03;1.08;;;13.30;65.10;;;;;;5051846;28;20442;-62
2022/03/14 03:34:16;;;;;;;1.10;0.82;;;13.20;65.20;;;;;;5049870;28;20112;-67
2022/03/14 03:36:42;;;;;;;1.55;0.88;;;13.20;65.30;;;;;;5049921;28;20041;-67
2022/03/14 03:39:08;;;;;;;1.52;1.13;;;13.20;65.80;;;;;;5051155;28;20033;-67
2022/03/14 03:41:33;;;;;;;2.03;1.30;;;13.20;66.80;;;;;;5050698;28;20047;-62
2022/03/14 03:43:59;;;;;;;2.08;1.45;;;13.20;66.60;;;;;;5051567;28;20203;-62
2022/03/14 03:46:25;;;;;;;2.05;1.20;;;13.20;66.30;;;;;;5049488;28;20041;-62
2022/03/14 03:48:50;;;;;;;1.13;0.80;;;13.10;66.40;;;;;;5051357;28;20372;-62
2022/03/14 03:51:16;;;;;;;1.42;1.10;;;13.10;66.50;;;;;;5051296;28;20088;-67
2022/03/14 03:53:42;;;;;;;1.75;1.00;;;13.00;66.90;;;;;;5051121;28;20068;-62
2022/03/14 03:56:07;;;;;;;1.23;1.00;;;13.00;67.00;;;;;;5049342;28;20068;-67
2022/03/14 03:58:34;;;;;;;1.02;0.82;;;13.10;67.20;;;;;;5050705;28;20374;-67
2022/03/14 04:00:59;;;;;;;1.88;1.20;;;13.10;67.10;;;;;;5049457;28;20067;-62
2022/03/14 04:03:25;;;;;;;1.65;0.95;;;13.00;66.90;;;;;;5051220;28;20060;-67
2022/03/14 04:05:51;;;;;;;1.58;1.08;;;13.00;67.30;;;;;;5050202;28;20040;-63
2022/03/14 04:08:17;;;;;;;1.58;1.10;;;13.00;67.20;;;;;;5049172;28;20021;-62
2022/03/14 04:10:43;;;;;;;1.42;0.93;;;12.90;67.30;;;;;;5051001;28;20108;-62
2022/03/14 04:13:09;;;;;;;2.05;1.40;;;12.90;67.40;;;;;;5050653;28;20045;-67
2022/03/14 04:15:52;;;;;;;2.00;1.00;;;12.90;67.60;;;;;;5050446;28;20025;-63
2022/03/14 04:18:23;;;;;;;;;;;12.80;67.60;;;;;;5051029;28;20051;-68
2022/03/14 04:20:49;;;;;;;1.48;1.38;;;12.80;67.60;;;;;;5050503;28;19917;-68
2022/03/14 04:23:17;;;;;;;1.52;0.90;;;12.70;67.70;;;;;;5050205;28;20040;-67
2022/03/14 04:25:46;;;;;;;1.23;0.90;;;12.60;68.10;;;;;;5059529;28;20017;-61
2022/03/14 04:28:15;;;;;;;1.55;1.23;;;12.60;68.20;;;;;;5060001;28;20032;-61
2022/03/14 04:30:41;;;;;;;3.28;1.20;;;12.60;68.30;;;;;;5050686;28;20083;-61
2022/03/14 04:33:08;;;;;;;1.35;1.17;;;12.60;68.20;;;;;;5049943;28;20108;-62
2022/03/14 04:35:35;;;;;;;1.85;1.38;;;12.60;68.40;;;;;;5049961;28;20514;-62
2022/03/14 04:38:02;;;;;;;1.42;1.23;;;12.70;68.80;;;;;;5048267;28;20104;-62
2022/03/14 04:40:27;;;;;;;1.73;1.00;;;12.60;68.50;;;;;;5050690;28;20040;-61
2022/03/14 04:42:53;;;;;;;1.27;0.90;;;12.60;68.80;;;;;;5048111;28;20063;-66
2022/03/14 04:45:19;;;;;;;1.45;1.33;;;12.60;68.80;;;;;;5053512;28;20094;-66
2022/03/14 04:47:45;;;;;;;1.63;1.10;;;12.60;68.90;;;;;;5042307;28;20532;-62
2022/03/14 04:50:10;;;;;;;1.80;1.60;;;12.50;69.20;;;;;;5046196;28;20043;-66
2022/03/14 04:52:36;;;;;;;1.38;1.20;;;12.50;69.30;;;;;;5049774;28;20021;-61
2022/03/14 04:55:02;;;;;;;1.98;1.40;;;12.50;69.50;;;;;;5049527;28;20043;-61
2022/03/14 04:57:28;;;;;;;1.63;1.25;;;12.50;69.70;;;;;;5048476;28;20048;-66
2022/03/14 04:59:54;;;;;;;2.88;1.90;;;12.50;69.70;;;;;;5049047;28;20033;-67
2022/03/14 05:02:22;;;;;;;1.88;1.30;;;12.50;69.60;;;;;;5050042;28;20028;-67
2022/03/14 05:04:48;;;;;;;1.83;1.50;;;12.50;69.60;;;;;;5048805;28;20041;-61
2022/03/14 05:07:14;;;;;;;1.27;1.17;;;12.50;69.90;;;;;;5049868;28;20032;-66
2022/03/14 05:09:39;;;;;;;1.77;1.13;;;12.50;70.30;;;;;;5050056;28;20059;-61
2022/03/14 05:12:06;;;;;;;2.83;2.35;;;12.50;69.80;;;;;;5048756;28;20029;-61
2022/03/14 05:14:31;;;;;;;1.48;1.13;;;12.40;69.70;;;;;;5046953;28;20499;-66
2022/03/14 05:16:57;;;;;;;2.67;1.35;;;12.30;70.60;;;;;;5043163;28;20060;-66
2022/03/14 05:19:23;;;;;;;1.85;1.48;;;12.20;70.70;;;;;;5049096;28;20079;-67
2022/03/14 05:21:49;;;;;;;2.72;2.03;;;12.10;71.90;;;;;;5048844;28;20044;-67
2022/03/14 05:24:14;;;;;;;2.45;1.90;;;12.00;72.40;;;;;;5049095;28;20033;-67
2022/03/14 05:26:40;;;;;;;3.10;2.65;;;11.90;73.20;;;;;;5048716;28;20060;-67
2022/03/14 05:29:06;;;;;;;3.83;1.88;;;11.90;73.50;;;;;;5031723;28;20029;-67
2022/03/14 05:31:32;;;;;;;2.85;2.25;;;11.80;74.10;;;;;;5048662;28;20033;-67
2022/03/14 05:33:59;;;;;;;3.05;2.30;;;11.70;74.90;;;;;;5048870;28;20025;-67
2022/03/14 05:36:25;;;;;;;3.63;2.70;;;11.70;75.00;;;;;;5049001;28;20040;-67
2022/03/14 05:38:50;;;;;;;3.05;2.47;;;11.70;75.40;;;;;;5049331;28;20086;-67
2022/03/14 05:41:16;;;;;;;3.63;2.40;;;11.60;75.30;;;;;;5049226;28;20040;-62
2022/03/14 05:43:42;;;;;;;2.38;2.08;;;11.60;75.30;;;;;;5049024;28;20033;-66
2022/03/14 05:46:08;;;;;;;3.17;2.40;;;11.60;75.90;;;;;;5047387;28;20060;-62
2022/03/14 05:48:35;;;;;;;3.80;3.15;;;11.60;75.80;;;;;;5049300;28;20078;-62
2022/03/14 05:51:05;;;;;;;4.40;3.13;;;11.50;76.40;;;;;;5049155;28;20040;-67
2022/03/14 05:53:31;;;;;;;4.65;3.00;;;11.50;76.20;;;;;;5048218;28;20060;-67
2022/03/14 05:55:57;;;;;;;3.95;3.15;;;11.60;76.20;;;;;;5048301;28;20035;-67
2022/03/14 05:58:23;;;;;;;3.67;2.75;;;11.50;76.20;;;;;;5048611;28;20033;-62
2022/03/14 06:00:51;;;;;;;4.05;3.00;;;11.50;76.40;;;;;;5049048;28;20028;-67
2022/03/14 06:03:19;;;;;;;5.15;3.38;;;11.50;76.40;;;;;;5049034;28;20055;-67
2022/03/14 06:05:48;;;;;;;7.10;4.68;;;11.50;76.40;;;;;;5048666;28;20040;-66
2022/03/14 06:08:14;;;;;;;5.25;3.63;;;11.40;76.60;;;;;;5048939;28;20037;-67
2022/03/14 06:10:42;;;;;;;6.55;3.30;;;11.40;76.60;;;;;;5048946;28;20045;-67
2022/03/14 06:13:08;;;;;;;5.53;3.53;;;11.40;76.50;;;;;;5048304;28;20029;-61
2022/03/14 06:15:34;;;;;;;5.80;3.22;;;11.40;76.60;;;;;;5048621;28;20033;-61
2022/03/14 06:18:00;;;;;;;4.22;3.17;;;11.40;76.80;;;;;;5046920;28;20021;-66
2022/03/14 06:20:25;;;;;;;4.80;2.80;;;11.40;76.70;;;;;;5048747;28;20037;-61
2022/03/14 06:22:51;;;;;;;5.90;3.22;;;11.40;76.70;;;;;;5047629;28;20099;-66
2022/03/14 06:25:18;;;;;;;4.40;3.30;;;11.40;76.80;;;;;;5048399;28;20503;-61
2022/03/14 06:27:44;;;;;;;4.82;2.88;;;11.30;76.80;;;;;;5048548;28;20025;-61
2022/03/14 06:30:11;;;;;;;5.00;3.03;;;11.30;76.60;;;;;;5030628;28;20108;-62
2022/03/14 06:32:38;;;;;;;4.93;2.90;;;11.30;76.70;;;;;;5046656;28;20033;-62
2022/03/14 06:35:05;;;;;;;6.28;3.72;;;11.30;76.70;;;;;;5045965;28;20035;-62
2022/03/14 06:37:31;;;;;;;6.55;3.20;;;11.20;76.80;;;;;;5047556;28;20395;-61
2022/03/14 06:39:56;;;;;;;4.97;3.10;;;11.20;76.80;;;;;;5048948;28;20033;-66
2022/03/14 06:42:23;;;;;;;5.88;3.80;;;11.20;76.70;;;;;;5048305;28;20236;-67
2022/03/14 06:44:50;;;;;;;6.30;3.72;;;11.20;76.70;;;;;;5048185;28;20033;-61
2022/03/14 06:47:17;;;;;;;6.85;4.10;;;11.20;76.80;;;;;;5048298;28;20060;-61
2022/03/14 06:49:44;;;;;;;4.57;3.45;;;11.20;76.90;;;;;;5048560;28;20040;-66
2022/03/14 06:52:16;;;;;;;4.50;2.58;;;11.20;76.80;;;;;;5046714;28;20036;-66
2022/03/14 06:54:42;;;;;;;5.20;3.63;;;11.20;76.80;;;;;;5047773;28;20021;-62
2022/03/14 06:57:09;;;;;;;5.68;4.00;;;11.20;76.90;;;;;;5062770;28;20402;-61
2022/03/14 06:59:35;;;;;;;7.00;3.85;;;11.20;77.00;;;;;;5048438;28;20388;-61
2022/03/14 07:02:02;;;;;;;9.05;4.43;;;11.10;77.10;;;;;;5047648;28;20017;-61
2022/03/14 07:04:28;;;;;;;6.28;4.50;;;11.10;77.20;;;;;;5042356;28;20295;-61
2022/03/14 07:06:54;;;;;;;7.20;3.95;;;11.10;77.30;;;;;;5037482;28;20044;-61
2022/03/14 07:09:19;;;;;;;7.18;3.67;;;11.20;77.40;;;;;;5037891;28;20025;-66
2022/03/14 07:11:51;;;;;;;9.27;3.88;;;11.20;77.20;;;;;;5060945;28;20029;-66
2022/03/14 07:14:21;;;;;;;6.97;3.80;;;11.20;77.10;;;;;;5047084;28;20029;-62
2022/03/14 07:16:50;;;;;;;4.68;3.40;;;11.20;77.20;;;;;;5048488;28;20428;-62
2022/03/14 07:19:16;;;;;;;5.07;3.22;;;11.20;77.10;;;;;;5048252;28;20025;-63
2022/03/14 07:21:42;;;;;;;8.82;3.97;;;11.20;77.30;;;;;;5047880;28;20040;-61
2022/03/14 07:24:08;;;;;;;4.95;3.67;;;11.20;77.20;;;;;;5047791;28;20021;-61
2022/03/14 07:26:34;;;;;;;11.52;4.65;;;11.20;77.30;;;;;;5047486;28;20028;-66
2022/03/14 07:29:01;;;;;;;6.38;4.43;;;11.20;77.30;;;;;;5047970;28;20070;-66
2022/03/14 07:31:26;;;;;;;9.63;4.90;;;11.20;77.40;;;;;;5049930;28;20483;-61
2022/03/14 07:33:52;;;;;;;8.07;4.47;;;11.20;77.40;;;;;;5050458;28;20021;-61
2022/03/14 07:36:18;;;;;;;6.03;3.88;;;11.20;77.30;;;;;;5051793;28;20395;-66
2022/03/14 07:38:45;;;;;;;7.47;4.80;;;11.10;77.20;;;;;;5051824;28;20333;-61
2022/03/14 07:41:10;;;;;;;8.98;4.68;;;11.20;77.20;;;;;;5046760;28;20535;-61
2022/03/14 07:43:38;;;;;;;6.72;4.93;;;11.20;77.20;;;;;;5045407;28;20032;-61
2022/03/14 07:46:03;;;;;;;9.65;5.57;;;11.20;77.10;;;;;;5050869;28;20029;-65
2022/03/14 07:48:29;;;;;;;8.90;5.80;;;11.20;77.10;;;;;;5033673;28;20028;-66
2022/03/14 07:50:55;;;;;;;7.80;5.15;;;11.20;77.00;;;;;;5051110;28;20025;-66
2022/03/14 07:53:21;;;;;;;7.78;5.43;;;11.20;76.90;;;;;;5051457;28;20025;-66
2022/03/14 07:55:47;;;;;;;7.28;4.80;;;11.20;76.90;;;;;;5050605;28;20027;-67
2022/03/14 07:58:13;;;;;;;8.02;5.30;;;11.30;76.90;;;;;;5049709;28;20079;-67
2022/03/14 08:00:39;;;;;;;10.63;5.60;;;11.20;76.90;;;;;;5050239;28;20033;-67
2022/03/14 08:03:05;;;;;;;10.73;5.70;;;11.20;76.90;;;;;;5049298;28;20546;-67
2022/03/14 08:05:30;;;;;;;7.78;5.15;;;11.30;77.00;;;;;;5051254;28;20083;-67
2022/03/14 08:07:57;;;;;;;10.18;5.80;;;11.30;77.10;;;;;;5050952;28;20027;-63
2022/03/14 08:10:23;;;;;;;9.18;5.55;;;11.30;77.10;;;;;;5050944;28;20176;-62
2022/03/14 08:12:53;;;;;;;13.77;6.45;;;11.30;77.10;;;;;;5050292;28;20021;-62
2022/03/14 08:15:30;;;;;;;13.07;7.30;;;11.20;77.10;;;;;;5049842;28;20467;-62
2022/03/14 08:18:01;;;;;;;10.88;6.28;;;11.20;77.30;;;;;;5050962;28;20484;-66
2022/03/14 08:20:28;;;;;;;11.50;6.03;;;11.30;77.10;;;;;;5044472;28;20419;-66
2022/03/14 08:22:58;;;;;;;10.48;6.65;;;11.30;77.10;;;;;;5049450;28;20436;-66
2022/03/14 08:25:24;;;;;;;10.70;6.40;;;11.30;77.00;;;;;;5050261;28;20445;-66
2022/03/14 08:27:51;;;;;;;11.27;6.07;;;11.30;77.00;;;;;;5050555;28;20112;-66
2022/03/14 08:30:20;;;;;;;8.95;5.65;;;11.30;77.50;;;;;;5050796;28;20021;-66
2022/03/14 08:32:46;;;;;;;10.93;6.50;;;11.30;77.00;;;;;;5050714;28;20025;-66
2022/03/14 08:35:11;;;;;;;11.80;6.88;;;11.30;77.10;;;;;;5050164;28;20396;-66
2022/03/14 08:37:39;;;;;;;11.27;7.30;;;11.40;77.00;;;;;;5050425;28;20076;-62
2022/03/14 08:40:10;;;;;;;13.50;7.20;;;11.40;76.90;;;;;;5050660;28;20025;-66
2022/03/14 08:42:36;;;;;;;13.05;6.80;;;11.40;76.70;;;;;;5048212;28;20036;-62
2022/03/14 08:45:03;;;;;;;7.75;5.45;;;11.40;76.70;;;;;;5050391;28;20499;-66
2022/03/14 08:47:29;;;;;;;11.02;6.55;;;11.40;76.70;;;;;;5049323;28;20408;-62
2022/03/14 08:49:55;;;;;;;11.68;6.15;;;11.40;76.80;;;;;;5050145;28;20151;-66
2022/03/14 08:52:20;;;;;;;9.52;6.97;;;11.40;76.80;;;;;;5050117;28;20090;-62
2022/03/14 08:54:46;;;;;;;11.80;5.55;;;11.40;76.80;;;;;;5050100;28;20025;-66
2022/03/14 08:57:12;;;;;;;9.10;6.35;;;11.40;76.70;;;;;;5047881;28;20033;-61
2022/03/14 08:59:38;;;;;;;11.45;6.40;;;11.40;76.70;;;;;;5050211;28;20064;-66
2022/03/14 09:02:04;;;;;;;13.73;6.53;;;11.40;76.60;;;;;;5049769;28;20048;-62
2022/03/14 09:04:29;;;;;;;13.88;7.25;;;11.40;76.50;;;;;;5049612;28;20044;-63
2022/03/14 09:06:55;;;;;;;11.45;6.30;;;11.30;76.40;;;;;;5050136;28;20040;-63
2022/03/14 09:09:21;;;;;;;9.77;6.95;;;11.30;76.40;;;;;;5050026;28;20392;-66
2022/03/14 09:11:47;;;;;;;14.00;8.15;;;11.40;76.30;;;;;;5049166;28;20028;-63
2022/03/14 09:14:12;;;;;;;21.90;8.02;;;11.40;76.20;;;;;;5049043;28;20447;-63
2022/03/14 09:16:39;;;;;;;12.60;6.90;;;11.40;76.20;;;;;;5049974;28;20167;-67
2022/03/14 09:19:04;;;;;;;11.43;6.55;;;11.40;76.80;;;;;;5048845;28;20082;-66
2022/03/14 09:21:33;;;;;;;11.30;6.93;;;11.40;76.10;;;;;;5049357;28;20033;-66
2022/03/14 09:24:00;;;;;;;16.60;7.05;;;11.40;76.10;;;;;;5048726;28;20103;-67
2022/03/14 09:26:25;;;;;;;12.10;6.15;;;11.40;76.20;;;;;;5058389;28;20037;-67
2022/03/14 09:28:51;;;;;;;12.77;7.47;;;11.40;76.30;;;;;;5055246;28;20482;-67
2022/03/14 09:31:17;;;;;;;11.38;6.40;;;11.40;76.40;;;;;;5049567;28;20036;-67
2022/03/14 09:33:43;;;;;;;10.38;7.07;;;11.40;76.30;;;;;;5034985;28;20036;-67
2022/03/14 09:36:09;;;;;;;15.55;8.75;;;11.40;76.40;;;;;;5040596;28;20036;-66
2022/03/14 09:38:35;;;;;;;9.73;5.65;;;11.40;76.40;;;;;;5046985;28;20036;-67
2022/03/14 09:41:03;;;;;;;11.85;7.22;;;11.40;76.40;;;;;;5034606;28;20103;-66
2022/03/14 09:43:36;;;;;;;12.15;6.65;;;11.40;76.30;;;;;;5035186;28;20401;-67
2022/03/14 09:46:05;;;;;;;12.82;7.40;;;11.50;76.10;;;;;;5035064;28;20040;-65
2022/03/14 09:48:36;;;;;;;12.55;6.50;;;11.40;76.00;;;;;;5047469;28;20025;-66
2022/03/14 09:51:03;;;;;;;12.48;7.50;;;11.50;75.90;;;;;;5048841;28;20021;-65
2022/03/14 09:53:30;;;;;;;12.48;6.63;;;11.50;75.90;;;;;;5047215;28;20040;-65
2022/03/14 09:55:56;;;;;;;15.65;7.78;;;11.50;75.90;;;;;;5048530;28;20025;-65
2022/03/14 09:58:22;;;;;;;12.27;6.90;;;11.50;75.70;;;;;;5048926;28;20048;-62
2022/03/14 10:00:50;;;;;;;18.02;10.00;;;11.50;75.80;;;;;;5047410;28;20527;-62
2022/03/14 10:03:17;;;;;;;14.02;7.93;;;11.50;75.90;;;;;;5046827;28;20029;-62
2022/03/14 10:05:44;;;;;;;11.43;7.00;;;11.60;75.90;;;;;;5046751;28;20055;-62
2022/03/14 10:08:10;;;;;;;18.77;8.43;;;11.60;75.70;;;;;;5046325;28;20025;-62
2022/03/14 10:10:39;;;;;;;19.15;7.93;;;11.60;75.80;;;;;;5047610;28;20416;-62
2022/03/14 10:13:06;;;;;;;14.57;7.60;;;11.60;75.80;;;;;;5046841;28;20102;-62
2022/03/14 10:15:34;;;;;;;14.65;8.07;;;11.60;75.90;;;;;;5048180;28;20036;-62
2022/03/14 10:18:02;;;;;;;13.60;7.93;;;11.60;75.80;;;;;;5048590;28;20025;-63
2022/03/14 10:20:28;;;;;;;15.07;8.38;;;11.60;75.70;;;;;;5039254;28;20108;-62
2022/03/14 10:22:59;;;;;;;17.40;8.82;;;11.60;76.30;;;;;;5044258;28;20191;-62
2022/03/14 10:25:24;;;;;;;16.65;8.82;;;11.70;75.70;;;;;;5048136;28;20037;-66
2022/03/14 10:27:56;;;;;;;19.23;8.43;;;11.70;75.70;;;;;;5046466;28;20090;-65
2022/03/14 10:30:26;;;;;;;16.05;9.23;;;11.70;75.70;;;;;;5040078;28;20033;-65
2022/03/14 10:33:05;;;;;;;16.35;8.98;;;11.80;75.60;;;;;;5039034;28;20333;-66
2022/03/14 10:35:36;;;;;;;14.20;8.82;;;11.80;75.40;;;;;;5038397;28;20033;-66
2022/03/14 10:38:05;;;;;;;20.42;8.98;;;11.90;75.20;;;;;;5079299;28;20040;-65
2022/03/14 10:40:39;;;;;;;13.85;8.70;;;12.00;75.10;;;;;;5040796;28;20029;-65
2022/03/14 10:43:23;;;;;;;14.60;7.88;;;12.00;75.00;;;;;;5039854;28;20470;-65
2022/03/14 10:45:49;;;;;;;16.83;8.05;;;12.10;74.80;;;;;;5038793;28;20482;-63
2022/03/14 10:48:15;;;;;;;27.35;18.10;;;12.10;74.60;;;;;;5041631;28;20026;-62
2022/03/14 10:50:42;;;;;;;454.10;126.65;;;12.20;74.40;;;;;;5034268;28;20017;-62
2022/03/14 10:53:26;;;;;;;187.85;86.70;;;12.20;74.10;;;;;;5039659;28;20029;-62
2022/03/14 10:55:58;;;;;;;241.23;66.43;;;12.20;73.90;;;;;;5039652;28;20036;-65
2022/03/14 10:58:28;;;;;;;;;;;12.20;73.90;;;;;;5047916;28;20454;-65
2022/03/14 11:00:58;;;;;;;10.65;6.68;;;12.20;74.00;;;;;;5048275;28;19960;-66
2022/03/14 11:03:32;;;;;;;12.98;7.32;;;12.20;73.90;;;;;;5047042;28;20043;-64
2022/03/14 11:06:03;;;;;;;11.95;6.28;;;12.20;73.80;;;;;;5051518;28;20041;-63
2022/03/14 11:08:43;;;;;;;20.88;13.25;;;12.20;73.80;;;;;;5052324;28;20395;-63
2022/03/14 11:11:17;;;;;;;19.85;13.60;;;12.30;73.90;;;;;;5049148;28;20075;-63
2022/03/14 11:13:46;;;;;;;22.73;13.63;;;12.50;73.80;;;;;;5049500;28;20036;-62
2022/03/14 11:16:18;;;;;;;23.70;14.25;;;12.60;73.30;;;;;;5049026;28;20472;-63
2022/03/14 11:18:44;;;;;;;21.08;12.30;;;12.70;72.70;;;;;;5046218;28;20025;-63
2022/03/14 11:21:13;;;;;;;21.58;12.93;;;12.70;72.20;;;;;;5045973;28;20438;-63
2022/03/14 11:23:42;;;;;;;22.05;13.25;;;12.80;71.80;;;;;;5046584;28;20029;-63
2022/03/14 11:26:12;;;;;;;18.45;12.25;;;12.70;71.40;;;;;;5043897;28;20029;-66
2022/03/14 11:28:41;;;;;;;20.27;12.55;;;12.70;71.40;;;;;;5041815;28;21431;-66
2022/03/14 11:31:07;;;;;;;18.20;12.18;;;12.70;71.30;;;;;;5044152;28;20440;-66
2022/03/14 11:33:35;;;;;;;18.23;10.95;;;12.60;71.20;;;;;;5046673;28;20029;-66
2022/03/14 11:36:02;;;;;;;15.13;10.88;;;12.60;71.20;;;;;;5046446;28;20033;-66
2022/03/14 11:38:29;;;;;;;20.60;11.45;;;12.50;71.40;;;;;;5052339;28;20033;-66
2022/03/14 11:40:57;;;;;;;15.20;10.10;;;12.50;71.40;;;;;;5048998;28;20067;-63
2022/03/14 11:43:23;;;;;;;14.88;10.02;;;12.60;71.50;;;;;;5044295;28;20436;-63
2022/03/14 11:45:50;;;;;;;18.98;10.63;;;12.70;71.40;;;;;;5044316;28;20057;-62
2022/03/14 11:48:17;;;;;;;17.33;10.20;;;12.80;71.30;;;;;;5052280;28;20477;-63
2022/03/14 11:50:46;;;;;;;17.73;9.55;;;13.00;71.20;;;;;;5056306;28;20037;-62
2022/03/14 11:53:47;;;;;;;12.77;8.98;;;13.00;69.70;;;;;;5044956;28;20041;-63
2022/03/14 11:56:13;;;;;;;17.95;9.35;;;13.00;70.00;;;;;;5049743;28;20029;-61
2022/03/14 11:58:49;;;;;;;16.25;9.15;;;13.10;69.40;;;;;;5046407;28;20036;-62
2022/03/14 12:01:21;;;;;;;15.70;9.35;;;13.10;69.30;;;;;;5043413;28;20029;-64
2022/03/14 12:03:59;;;;;;;15.18;9.43;;;13.20;69.40;;;;;;5050476;28;20025;-65
2022/03/14 12:06:46;;;;;;;17.00;9.02;;;13.30;69.60;;;;;;5046307;28;20040;-65
2022/03/14 12:09:34;;;;;;;13.57;8.65;;;13.40;69.00;;;;;;5050549;28;20083;-62
2022/03/14 12:12:12;;;;;;;15.35;9.50;;;13.50;68.80;;;;;;5036457;28;20029;-62
2022/03/14 12:14:47;;;;;;;14.57;8.20;;;13.60;68.60;;;;;;5045631;28;20059;-63
2022/03/14 12:17:13;;;;;;;14.27;8.32;;;13.90;68.50;;;;;;5044757;28;20041;-62
2022/03/14 12:19:41;;;;;;;14.48;6.50;;;14.20;66.30;;;;;;5047714;28;20037;-62
2022/03/14 12:22:11;;;;;;;9.80;7.07;;;14.40;65.90;;;;;;5043375;28;20063;-61
2022/03/14 12:24:37;;;;;;;17.25;7.38;;;14.60;65.40;;;;;;5047037;28;20428;-62
2022/03/14 12:27:33;;;;;;;11.05;6.90;;;14.80;64.10;;;;;;5033020;28;20108;-61
2022/03/14 12:30:00;;;;;;;13.25;6.75;;;14.90;63.30;;;;;;5063878;28;20024;-61
2022/03/14 12:32:52;;;;;;;9.20;5.97;;;14.90;63.40;;;;;;5031230;28;20029;-64
2022/03/14 12:35:27;;;;;;;12.77;7.22;;;14.80;62.80;;;;;;5037101;28;20060;-63
2022/03/14 12:38:14;;;;;;;11.00;6.32;;;14.90;62.50;;;;;;5030063;28;20036;-65
2022/03/14 12:40:42;;;;;;;9.93;6.75;;;14.90;62.10;;;;;;5036662;28;20034;-62
2022/03/14 12:43:07;;;;;;;9.25;6.00;;;14.80;62.20;;;;;;5045300;28;20083;-63
2022/03/14 12:45:42;;;;;;;11.30;6.28;;;14.80;62.80;;;;;;5032309;28;20464;-65